sensor_id;sensor_type;location;lat;lon;timestamp;P1;durP1;ratioP1;P2;durP2;ratioP2
65825;SDS011;52586;-43.152;172.732;2023-05-07T00:00:30;2.20;;;1.40;;
65825;SDS011;52586;-43.152;172.732;2023-05-07T00:03:03;1.63;;;1.52;;
65825;SDS011;52586;-43.152;172.732;2023-05-07T00:05:34;2.75;;;1.42;;
65825;SDS011;52586;-43.152;172.732;2023-05-07T00:08:05;1.83;;;1.40;;
65825;SDS011;52586;-43.152;172.732;2023-05-07T00:10:36;2.42;;;1.75;;
65825;SDS011;52586;-43.152;172.732;2023-05-07T00:13:06;4.50;;;2.10;;
65825;SDS011;52586;-43.152;172.732;2023-05-07T00:15:37;2.20;;;1.77;;
65825;SDS011;52586;-43.152;172.732;2023-05-07T00:18:09;3.00;;;1.70;;
65825;SDS011;52586;-43.152;172.732;2023-05-07T00:20:40;2.58;;;1.70;;
65825;SDS011;52586;-43.152;172.732;2023-05-07T00:23:11;2.05;;;1.45;;
65825;SDS011;52586;-43.152;172.732;2023-05-07T00:25:41;3.28;;;2.20;;
65825;SDS011;52586;-43.152;172.732;2023-05-07T00:28:12;6.80;;;2.45;;
65825;SDS011;52586;-43.152;172.732;2023-05-07T00:30:43;5.15;;;2.00;;
65825;SDS011;52586;-43.152;172.732;2023-05-07T00:33:15;8.32;;;2.00;;
65825;SDS011;52586;-43.152;172.732;2023-05-07T00:35:46;7.45;;;4.10;;
65825;SDS011;52586;-43.152;172.732;2023-05-07T00:38:17;5.18;;;2.40;;
65825;SDS011;52586;-43.152;172.732;2023-05-07T00:40:48;6.40;;;2.58;;
65825;SDS011;52586;-43.152;172.732;2023-05-07T00:43:18;4.05;;;2.50;;
65825;SDS011;52586;-43.152;172.732;2023-05-07T00:45:49;6.50;;;2.40;;
65825;SDS011;52586;-43.152;172.732;2023-05-07T00:48:22;3.90;;;2.33;;
65825;SDS011;52586;-43.152;172.732;2023-05-07T00:50:53;5.22;;;2.53;;
65825;SDS011;52586;-43.152;172.732;2023-05-07T00:53:25;4.32;;;2.63;;
65825;SDS011;52586;-43.152;172.732;2023-05-07T00:55:56;4.22;;;2.63;;
65825;SDS011;52586;-43.152;172.732;2023-05-07T00:58:27;4.13;;;2.47;;
65825;SDS011;52586;-43.152;172.732;2023-05-07T01:00:58;3.40;;;2.30;;
65825;SDS011;52586;-43.152;172.732;2023-05-07T01:03:31;3.72;;;2.30;;
65825;SDS011;52586;-43.152;172.732;2023-05-07T01:06:01;3.72;;;2.13;;
65825;SDS011;52586;-43.152;172.732;2023-05-07T01:08:33;3.58;;;2.63;;
65825;SDS011;52586;-43.152;172.732;2023-05-07T01:11:05;5.03;;;3.13;;
65825;SDS011;52586;-43.152;172.732;2023-05-07T01:13:37;4.30;;;2.67;;
65825;SDS011;52586;-43.152;172.732;2023-05-07T01:16:09;3.92;;;2.83;;
65825;SDS011;52586;-43.152;172.732;2023-05-07T01:18:42;4.05;;;2.70;;
65825;SDS011;52586;-43.152;172.732;2023-05-07T01:21:14;5.35;;;2.92;;
65825;SDS011;52586;-43.152;172.732;2023-05-07T01:23:48;4.35;;;2.90;;
65825;SDS011;52586;-43.152;172.732;2023-05-07T01:26:19;4.72;;;3.13;;
65825;SDS011;52586;-43.152;172.732;2023-05-07T01:28:51;4.57;;;2.95;;
65825;SDS011;52586;-43.152;172.732;2023-05-07T01:31:22;5.78;;;3.33;;
65825;SDS011;52586;-43.152;172.732;2023-05-07T01:33:54;5.38;;;2.80;;
65825;SDS011;52586;-43.152;172.732;2023-05-07T01:36:25;5.00;;;3.13;;
65825;SDS011;52586;-43.152;172.732;2023-05-07T01:38:59;3.83;;;2.70;;
65825;SDS011;52586;-43.152;172.732;2023-05-07T01:41:30;4.30;;;2.75;;
65825;SDS011;52586;-43.152;172.732;2023-05-07T01:44:01;3.25;;;2.67;;
65825;SDS011;52586;-43.152;172.732;2023-05-07T01:46:34;4.00;;;2.70;;
65825;SDS011;52586;-43.152;172.732;2023-05-07T01:49:05;4.10;;;3.03;;
65825;SDS011;52586;-43.152;172.732;2023-05-07T01:51:36;5.13;;;2.75;;
65825;SDS011;52586;-43.152;172.732;2023-05-07T01:54:09;4.72;;;2.97;;
65825;SDS011;52586;-43.152;172.732;2023-05-07T01:56:40;3.75;;;2.63;;
65825;SDS011;52586;-43.152;172.732;2023-05-07T01:59:11;4.45;;;3.05;;
65825;SDS011;52586;-43.152;172.732;2023-05-07T02:01:41;5.20;;;2.95;;
65825;SDS011;52586;-43.152;172.732;2023-05-07T02:04:12;3.67;;;2.83;;
65825;SDS011;52586;-43.152;172.732;2023-05-07T02:06:43;6.05;;;2.95;;
65825;SDS011;52586;-43.152;172.732;2023-05-07T02:09:15;5.10;;;2.72;;
65825;SDS011;52586;-43.152;172.732;2023-05-07T02:11:46;3.53;;;2.70;;
65825;SDS011;52586;-43.152;172.732;2023-05-07T02:14:17;6.13;;;2.97;;
65825;SDS011;52586;-43.152;172.732;2023-05-07T02:16:47;4.93;;;2.92;;
65825;SDS011;52586;-43.152;172.732;2023-05-07T02:19:18;3.85;;;2.60;;
65825;SDS011;52586;-43.152;172.732;2023-05-07T02:21:49;4.32;;;2.40;;
65825;SDS011;52586;-43.152;172.732;2023-05-07T03:24:17;3.60;;;2.60;;
65825;SDS011;52586;-43.152;172.732;2023-05-07T03:26:48;4.50;;;2.50;;
65825;SDS011;52586;-43.152;172.732;2023-05-07T03:29:19;3.45;;;2.80;;
65825;SDS011;52586;-43.152;172.732;2023-05-07T03:31:49;3.67;;;2.63;;
65825;SDS011;52586;-43.152;172.732;2023-05-07T03:34:20;5.03;;;2.83;;
65825;SDS011;52586;-43.152;172.732;2023-05-07T03:36:51;3.00;;;2.47;;
65825;SDS011;52586;-43.152;172.732;2023-05-07T03:39:23;2.60;;;2.17;;
65825;SDS011;52586;-43.152;172.732;2023-05-07T03:41:54;4.30;;;2.58;;
65825;SDS011;52586;-43.152;172.732;2023-05-07T03:44:25;3.03;;;2.72;;
65825;SDS011;52586;-43.152;172.732;2023-05-07T03:46:55;3.28;;;2.38;;
65825;SDS011;52586;-43.152;172.732;2023-05-07T03:51:56;3.00;;;2.65;;
65825;SDS011;52586;-43.152;172.732;2023-05-07T03:54:29;3.25;;;2.78;;
65825;SDS011;52586;-43.152;172.732;2023-05-07T03:57:00;3.75;;;2.30;;
65825;SDS011;52586;-43.152;172.732;2023-05-07T03:59:31;2.88;;;2.40;;
65825;SDS011;52586;-43.152;172.732;2023-05-07T04:02:02;5.10;;;3.00;;
65825;SDS011;52586;-43.152;172.732;2023-05-07T04:04:32;6.75;;;3.33;;
65825;SDS011;52586;-43.152;172.732;2023-05-07T04:07:03;5.47;;;2.97;;
65825;SDS011;52586;-43.152;172.732;2023-05-07T04:09:35;6.07;;;3.30;;
65825;SDS011;52586;-43.152;172.732;2023-05-07T04:12:06;6.75;;;3.13;;
65825;SDS011;52586;-43.152;172.732;2023-05-07T04:14:36;7.90;;;3.75;;
65825;SDS011;52586;-43.152;172.732;2023-05-07T04:17:07;6.28;;;2.95;;
65825;SDS011;52586;-43.152;172.732;2023-05-07T04:19:38;8.05;;;3.17;;
65825;SDS011;52586;-43.152;172.732;2023-05-07T04:24:43;6.32;;;3.38;;
65825;SDS011;52586;-43.152;172.732;2023-05-07T04:27:13;6.35;;;3.08;;
65825;SDS011;52586;-43.152;172.732;2023-05-07T04:29:44;11.30;;;4.50;;
65825;SDS011;52586;-43.152;172.732;2023-05-07T04:32:14;7.68;;;3.80;;
65825;SDS011;52586;-43.152;172.732;2023-05-07T04:34:45;11.98;;;6.65;;
65825;SDS011;52586;-43.152;172.732;2023-05-07T04:37:16;11.20;;;8.38;;
65825;SDS011;52586;-43.152;172.732;2023-05-07T04:39:48;47.10;;;35.20;;
65825;SDS011;52586;-43.152;172.732;2023-05-07T04:42:19;75.90;;;57.50;;
65825;SDS011;52586;-43.152;172.732;2023-05-07T04:44:52;41.88;;;33.58;;
65825;SDS011;52586;-43.152;172.732;2023-05-07T04:47:23;28.13;;;22.67;;
65825;SDS011;52586;-43.152;172.732;2023-05-07T04:49:53;19.83;;;15.95;;
65825;SDS011;52586;-43.152;172.732;2023-05-07T04:52:24;25.05;;;22.33;;
65825;SDS011;52586;-43.152;172.732;2023-05-07T04:54:58;26.90;;;23.52;;
65825;SDS011;52586;-43.152;172.732;2023-05-07T04:57:32;22.70;;;16.92;;
65825;SDS011;52586;-43.152;172.732;2023-05-07T05:00:02;15.57;;;12.45;;
65825;SDS011;52586;-43.152;172.732;2023-05-07T05:02:34;12.25;;;9.80;;
65825;SDS011;52586;-43.152;172.732;2023-05-07T05:05:05;12.45;;;7.93;;
65825;SDS011;52586;-43.152;172.732;2023-05-07T05:07:36;7.40;;;5.40;;
65825;SDS011;52586;-43.152;172.732;2023-05-07T05:10:09;8.07;;;5.57;;
65825;SDS011;52586;-43.152;172.732;2023-05-07T05:12:39;14.23;;;9.18;;
65825;SDS011;52586;-43.152;172.732;2023-05-07T05:15:11;16.25;;;10.25;;
65825;SDS011;52586;-43.152;172.732;2023-05-07T05:17:41;16.25;;;9.50;;
65825;SDS011;52586;-43.152;172.732;2023-05-07T05:20:12;14.30;;;9.50;;
65825;SDS011;52586;-43.152;172.732;2023-05-07T05:22:43;19.13;;;14.25;;
65825;SDS011;52586;-43.152;172.732;2023-05-07T05:25:15;20.55;;;14.02;;
65825;SDS011;52586;-43.152;172.732;2023-05-07T05:27:46;16.70;;;12.82;;
65825;SDS011;52586;-43.152;172.732;2023-05-07T05:30:17;16.60;;;11.40;;
65825;SDS011;52586;-43.152;172.732;2023-05-07T05:32:47;19.15;;;15.88;;
65825;SDS011;52586;-43.152;172.732;2023-05-07T05:35:18;23.38;;;18.13;;
65825;SDS011;52586;-43.152;172.732;2023-05-07T05:37:48;26.98;;;20.20;;
65825;SDS011;52586;-43.152;172.732;2023-05-07T05:40:21;25.92;;;22.80;;
65825;SDS011;52586;-43.152;172.732;2023-05-07T05:42:51;25.25;;;20.95;;
65825;SDS011;52586;-43.152;172.732;2023-05-07T05:45:22;22.38;;;18.48;;
65825;SDS011;52586;-43.152;172.732;2023-05-07T05:47:53;19.70;;;16.48;;
65825;SDS011;52586;-43.152;172.732;2023-05-07T05:50:26;21.20;;;16.15;;
65825;SDS011;52586;-43.152;172.732;2023-05-07T05:52:56;17.50;;;14.40;;
65825;SDS011;52586;-43.152;172.732;2023-05-07T05:55:29;16.85;;;14.20;;
65825;SDS011;52586;-43.152;172.732;2023-05-07T05:58:00;15.65;;;13.10;;
65825;SDS011;52586;-43.152;172.732;2023-05-07T06:00:31;16.48;;;13.77;;
65825;SDS011;52586;-43.152;172.732;2023-05-07T06:03:02;13.73;;;11.05;;
65825;SDS011;52586;-43.152;172.732;2023-05-07T06:05:33;18.27;;;12.63;;
65825;SDS011;52586;-43.152;172.732;2023-05-07T06:08:04;13.57;;;10.13;;
65825;SDS011;52586;-43.152;172.732;2023-05-07T06:10:37;13.70;;;10.70;;
65825;SDS011;52586;-43.152;172.732;2023-05-07T06:13:08;10.10;;;7.75;;
65825;SDS011;52586;-43.152;172.732;2023-05-07T06:15:38;14.50;;;8.10;;
65825;SDS011;52586;-43.152;172.732;2023-05-07T06:18:09;8.50;;;5.43;;
65825;SDS011;52586;-43.152;172.732;2023-05-07T06:20:40;8.50;;;5.07;;
65825;SDS011;52586;-43.152;172.732;2023-05-07T06:23:10;7.90;;;6.20;;
65825;SDS011;52586;-43.152;172.732;2023-05-07T06:25:45;9.00;;;5.32;;
65825;SDS011;52586;-43.152;172.732;2023-05-07T06:28:17;7.25;;;4.47;;
65825;SDS011;52586;-43.152;172.732;2023-05-07T06:30:48;9.23;;;5.43;;
65825;SDS011;52586;-43.152;172.732;2023-05-07T06:33:19;8.48;;;5.15;;
65825;SDS011;52586;-43.152;172.732;2023-05-07T06:35:49;7.53;;;4.70;;
65825;SDS011;52586;-43.152;172.732;2023-05-07T06:38:20;9.02;;;4.68;;
65825;SDS011;52586;-43.152;172.732;2023-05-07T06:40:52;8.48;;;4.90;;
65825;SDS011;52586;-43.152;172.732;2023-05-07T06:43:23;5.47;;;4.55;;
65825;SDS011;52586;-43.152;172.732;2023-05-07T06:45:54;6.30;;;4.32;;
65825;SDS011;52586;-43.152;172.732;2023-05-07T06:48:24;6.22;;;3.55;;
65825;SDS011;52586;-43.152;172.732;2023-05-07T06:50:55;6.07;;;3.60;;
65825;SDS011;52586;-43.152;172.732;2023-05-07T06:53:26;6.68;;;3.75;;
65825;SDS011;52586;-43.152;172.732;2023-05-07T06:55:58;4.93;;;3.88;;
65825;SDS011;52586;-43.152;172.732;2023-05-07T06:58:29;5.55;;;3.55;;
65825;SDS011;52586;-43.152;172.732;2023-05-07T07:01:00;5.35;;;4.35;;
65825;SDS011;52586;-43.152;172.732;2023-05-07T07:03:30;6.07;;;4.10;;
65825;SDS011;52586;-43.152;172.732;2023-05-07T07:06:01;5.97;;;4.50;;
65825;SDS011;52586;-43.152;172.732;2023-05-07T07:08:32;9.40;;;6.47;;
65825;SDS011;52586;-43.152;172.732;2023-05-07T07:11:06;11.77;;;9.07;;
65825;SDS011;52586;-43.152;172.732;2023-05-07T07:13:37;13.45;;;9.43;;
65825;SDS011;52586;-43.152;172.732;2023-05-07T07:16:08;13.02;;;9.63;;
65825;SDS011;52586;-43.152;172.732;2023-05-07T07:18:39;9.75;;;8.68;;
65825;SDS011;52586;-43.152;172.732;2023-05-07T07:21:10;8.82;;;7.80;;
65825;SDS011;52586;-43.152;172.732;2023-05-07T07:23:40;12.40;;;8.25;;
65825;SDS011;52586;-43.152;172.732;2023-05-07T07:26:13;12.77;;;8.23;;
65825;SDS011;52586;-43.152;172.732;2023-05-07T07:28:44;8.38;;;7.47;;
65825;SDS011;52586;-43.152;172.732;2023-05-07T07:31:15;10.13;;;7.18;;
65825;SDS011;52586;-43.152;172.732;2023-05-07T07:33:45;12.65;;;8.25;;
65825;SDS011;52586;-43.152;172.732;2023-05-07T07:36:16;10.88;;;8.20;;
65825;SDS011;52586;-43.152;172.732;2023-05-07T07:38:47;9.90;;;8.07;;
65825;SDS011;52586;-43.152;172.732;2023-05-07T07:41:19;11.23;;;8.45;;
65825;SDS011;52586;-43.152;172.732;2023-05-07T07:43:50;12.07;;;9.60;;
65825;SDS011;52586;-43.152;172.732;2023-05-07T07:46:20;12.82;;;10.05;;
65825;SDS011;52586;-43.152;172.732;2023-05-07T07:48:52;10.27;;;8.05;;
65825;SDS011;52586;-43.152;172.732;2023-05-07T07:51:25;8.40;;;6.50;;
65825;SDS011;52586;-43.152;172.732;2023-05-07T07:53:55;10.88;;;7.25;;
65825;SDS011;52586;-43.152;172.732;2023-05-07T07:56:28;6.55;;;5.43;;
65825;SDS011;52586;-43.152;172.732;2023-05-07T07:59:01;7.00;;;5.20;;
65825;SDS011;52586;-43.152;172.732;2023-05-07T08:01:32;5.97;;;4.53;;
65825;SDS011;52586;-43.152;172.732;2023-05-07T08:04:03;7.13;;;4.90;;
65825;SDS011;52586;-43.152;172.732;2023-05-07T08:06:33;6.30;;;4.63;;
65825;SDS011;52586;-43.152;172.732;2023-05-07T08:09:04;5.22;;;4.50;;
65825;SDS011;52586;-43.152;172.732;2023-05-07T08:11:36;9.93;;;5.43;;
65825;SDS011;52586;-43.152;172.732;2023-05-07T08:14:07;7.47;;;4.85;;
65825;SDS011;52586;-43.152;172.732;2023-05-07T08:16:38;6.32;;;5.07;;
65825;SDS011;52586;-43.152;172.732;2023-05-07T08:19:09;6.65;;;5.07;;
65825;SDS011;52586;-43.152;172.732;2023-05-07T08:21:39;6.00;;;5.30;;
65825;SDS011;52586;-43.152;172.732;2023-05-07T08:24:10;5.82;;;4.78;;
65825;SDS011;52586;-43.152;172.732;2023-05-07T08:26:42;6.72;;;5.00;;
65825;SDS011;52586;-43.152;172.732;2023-05-07T08:29:13;7.10;;;4.90;;
65825;SDS011;52586;-43.152;172.732;2023-05-07T08:31:44;5.68;;;4.45;;
65825;SDS011;52586;-43.152;172.732;2023-05-07T08:34:14;6.95;;;4.88;;
65825;SDS011;52586;-43.152;172.732;2023-05-07T08:36:45;6.40;;;4.85;;
65825;SDS011;52586;-43.152;172.732;2023-05-07T08:39:16;8.77;;;5.45;;
65825;SDS011;52586;-43.152;172.732;2023-05-07T08:41:48;6.43;;;4.47;;
65825;SDS011;52586;-43.152;172.732;2023-05-07T08:44:24;5.85;;;4.57;;
65825;SDS011;52586;-43.152;172.732;2023-05-07T08:46:58;6.28;;;4.55;;
65825;SDS011;52586;-43.152;172.732;2023-05-07T08:49:30;6.18;;;4.40;;
65825;SDS011;52586;-43.152;172.732;2023-05-07T08:52:02;4.53;;;4.13;;
65825;SDS011;52586;-43.152;172.732;2023-05-07T08:54:32;6.80;;;4.65;;
65825;SDS011;52586;-43.152;172.732;2023-05-07T08:57:07;5.28;;;4.60;;
65825;SDS011;52586;-43.152;172.732;2023-05-07T08:59:37;5.88;;;4.60;;
65825;SDS011;52586;-43.152;172.732;2023-05-07T09:02:08;5.63;;;4.38;;
65825;SDS011;52586;-43.152;172.732;2023-05-07T09:04:39;5.50;;;4.55;;
65825;SDS011;52586;-43.152;172.732;2023-05-07T09:07:10;6.05;;;4.70;;
65825;SDS011;52586;-43.152;172.732;2023-05-07T09:09:41;5.22;;;4.43;;
65825;SDS011;52586;-43.152;172.732;2023-05-07T09:12:15;8.95;;;5.20;;
65825;SDS011;52586;-43.152;172.732;2023-05-07T09:14:46;7.45;;;4.65;;
65825;SDS011;52586;-43.152;172.732;2023-05-07T09:17:16;6.00;;;4.15;;
65825;SDS011;52586;-43.152;172.732;2023-05-07T09:19:47;6.78;;;5.10;;
65825;SDS011;52586;-43.152;172.732;2023-05-07T09:22:27;9.07;;;5.75;;
65825;SDS011;52586;-43.152;172.732;2023-05-07T09:25:00;10.55;;;6.30;;
65825;SDS011;52586;-43.152;172.732;2023-05-07T09:27:32;10.32;;;5.45;;
65825;SDS011;52586;-43.152;172.732;2023-05-07T09:30:03;8.68;;;4.97;;
65825;SDS011;52586;-43.152;172.732;2023-05-07T09:32:35;6.90;;;5.38;;
65825;SDS011;52586;-43.152;172.732;2023-05-07T09:35:06;6.75;;;4.68;;
65825;SDS011;52586;-43.152;172.732;2023-05-07T09:37:44;7.93;;;5.10;;
65825;SDS011;52586;-43.152;172.732;2023-05-07T09:40:25;9.00;;;4.82;;
65825;SDS011;52586;-43.152;172.732;2023-05-07T09:43:01;7.75;;;5.22;;
65825;SDS011;52586;-43.152;172.732;2023-05-07T09:45:39;9.32;;;5.30;;
65825;SDS011;52586;-43.152;172.732;2023-05-07T09:48:11;7.72;;;5.10;;
65825;SDS011;52586;-43.152;172.732;2023-05-07T09:50:47;6.88;;;4.90;;
65825;SDS011;52586;-43.152;172.732;2023-05-07T09:53:20;6.63;;;4.85;;
65825;SDS011;52586;-43.152;172.732;2023-05-07T09:55:54;6.43;;;4.63;;
65825;SDS011;52586;-43.152;172.732;2023-05-07T09:58:32;8.38;;;5.10;;
65825;SDS011;52586;-43.152;172.732;2023-05-07T10:01:06;6.38;;;4.40;;
65825;SDS011;52586;-43.152;172.732;2023-05-07T10:03:37;6.18;;;4.70;;
65825;SDS011;52586;-43.152;172.732;2023-05-07T10:06:10;6.72;;;4.68;;
65825;SDS011;52586;-43.152;172.732;2023-05-07T10:08:43;6.78;;;4.53;;
65825;SDS011;52586;-43.152;172.732;2023-05-07T10:11:14;5.63;;;4.43;;
65825;SDS011;52586;-43.152;172.732;2023-05-07T10:13:47;6.45;;;4.38;;
65825;SDS011;52586;-43.152;172.732;2023-05-07T10:16:18;7.10;;;4.60;;
65825;SDS011;52586;-43.152;172.732;2023-05-07T10:18:50;9.63;;;4.40;;
65825;SDS011;52586;-43.152;172.732;2023-05-07T10:21:22;6.25;;;4.55;;
65825;SDS011;52586;-43.152;172.732;2023-05-07T10:23:57;5.88;;;4.28;;
65825;SDS011;52586;-43.152;172.732;2023-05-07T10:26:32;6.63;;;4.90;;
65825;SDS011;52586;-43.152;172.732;2023-05-07T10:29:07;5.72;;;4.25;;
65825;SDS011;52586;-43.152;172.732;2023-05-07T10:31:55;6.35;;;4.28;;
65825;SDS011;52586;-43.152;172.732;2023-05-07T10:34:30;6.45;;;4.78;;
65825;SDS011;52586;-43.152;172.732;2023-05-07T10:37:05;5.43;;;4.10;;
65825;SDS011;52586;-43.152;172.732;2023-05-07T10:39:36;7.82;;;4.78;;
65825;SDS011;52586;-43.152;172.732;2023-05-07T10:42:09;7.53;;;4.90;;
65825;SDS011;52586;-43.152;172.732;2023-05-07T10:44:42;7.70;;;4.65;;
65825;SDS011;52586;-43.152;172.732;2023-05-07T10:47:16;6.80;;;4.10;;
65825;SDS011;52586;-43.152;172.732;2023-05-07T11:02:09;6.25;;;4.38;;
65825;SDS011;52586;-43.152;172.732;2023-05-07T11:04:41;6.68;;;4.57;;
65825;SDS011;52586;-43.152;172.732;2023-05-07T11:10:05;9.23;;;4.50;;
65825;SDS011;52586;-43.152;172.732;2023-05-07T11:12:55;5.68;;;4.10;;
65825;SDS011;52586;-43.152;172.732;2023-05-07T11:15:35;5.82;;;4.00;;
65825;SDS011;52586;-43.152;172.732;2023-05-07T11:18:12;7.55;;;4.60;;
65825;SDS011;52586;-43.152;172.732;2023-05-07T11:20:44;7.47;;;5.03;;
65825;SDS011;52586;-43.152;172.732;2023-05-07T11:26:27;6.55;;;4.25;;
65825;SDS011;52586;-43.152;172.732;2023-05-07T11:28:59;5.50;;;4.40;;
65825;SDS011;52586;-43.152;172.732;2023-05-07T11:31:30;6.10;;;4.13;;
65825;SDS011;52586;-43.152;172.732;2023-05-07T11:34:03;5.20;;;3.92;;
65825;SDS011;52586;-43.152;172.732;2023-05-07T11:36:34;7.05;;;4.50;;
65825;SDS011;52586;-43.152;172.732;2023-05-07T11:39:26;6.07;;;4.47;;
65825;SDS011;52586;-43.152;172.732;2023-05-07T11:41:59;5.18;;;4.05;;
65825;SDS011;52586;-43.152;172.732;2023-05-07T11:44:41;6.45;;;4.60;;
65825;SDS011;52586;-43.152;172.732;2023-05-07T11:47:17;6.80;;;4.60;;
65825;SDS011;52586;-43.152;172.732;2023-05-07T11:49:50;7.82;;;4.38;;
65825;SDS011;52586;-43.152;172.732;2023-05-07T11:52:22;5.60;;;4.30;;
65825;SDS011;52586;-43.152;172.732;2023-05-07T11:54:54;6.47;;;4.72;;
65825;SDS011;52586;-43.152;172.732;2023-05-07T11:57:26;6.40;;;4.10;;
65825;SDS011;52586;-43.152;172.732;2023-05-07T11:59:57;7.93;;;4.88;;
65825;SDS011;52586;-43.152;172.732;2023-05-07T12:02:28;6.13;;;4.38;;
65825;SDS011;52586;-43.152;172.732;2023-05-07T12:05:00;5.57;;;4.60;;
65825;SDS011;52586;-43.152;172.732;2023-05-07T12:07:32;7.70;;;4.78;;
65825;SDS011;52586;-43.152;172.732;2023-05-07T12:10:06;5.97;;;4.38;;
65825;SDS011;52586;-43.152;172.732;2023-05-07T12:12:40;5.60;;;3.90;;
65825;SDS011;52586;-43.152;172.732;2023-05-07T12:15:15;8.50;;;4.53;;
65825;SDS011;52586;-43.152;172.732;2023-05-07T12:17:51;7.93;;;4.63;;
65825;SDS011;52586;-43.152;172.732;2023-05-07T12:20:23;5.03;;;3.88;;
65825;SDS011;52586;-43.152;172.732;2023-05-07T12:22:54;6.25;;;4.10;;
65825;SDS011;52586;-43.152;172.732;2023-05-07T12:25:25;5.18;;;3.90;;
65825;SDS011;52586;-43.152;172.732;2023-05-07T12:28:00;5.80;;;4.00;;
65825;SDS011;52586;-43.152;172.732;2023-05-07T12:30:31;6.45;;;4.30;;
65825;SDS011;52586;-43.152;172.732;2023-05-07T12:33:05;7.95;;;4.63;;
65825;SDS011;52586;-43.152;172.732;2023-05-07T12:35:38;6.97;;;4.55;;
65825;SDS011;52586;-43.152;172.732;2023-05-07T12:38:09;6.72;;;4.45;;
65825;SDS011;52586;-43.152;172.732;2023-05-07T12:40:41;5.90;;;4.53;;
65825;SDS011;52586;-43.152;172.732;2023-05-07T12:43:16;6.72;;;4.50;;
65825;SDS011;52586;-43.152;172.732;2023-05-07T12:45:48;7.28;;;4.72;;
65825;SDS011;52586;-43.152;172.732;2023-05-07T12:48:20;7.88;;;4.65;;
65825;SDS011;52586;-43.152;172.732;2023-05-07T12:50:55;8.02;;;4.35;;
65825;SDS011;52586;-43.152;172.732;2023-05-07T12:53:26;6.82;;;4.65;;
65825;SDS011;52586;-43.152;172.732;2023-05-07T12:55:58;7.25;;;4.35;;
65825;SDS011;52586;-43.152;172.732;2023-05-07T12:58:29;8.02;;;4.70;;
65825;SDS011;52586;-43.152;172.732;2023-05-07T13:01:03;7.45;;;4.85;;
65825;SDS011;52586;-43.152;172.732;2023-05-07T13:03:35;7.35;;;4.50;;
65825;SDS011;52586;-43.152;172.732;2023-05-07T13:06:09;5.57;;;4.35;;
65825;SDS011;52586;-43.152;172.732;2023-05-07T13:08:40;6.05;;;4.57;;
65825;SDS011;52586;-43.152;172.732;2023-05-07T13:11:11;9.65;;;4.80;;
65825;SDS011;52586;-43.152;172.732;2023-05-07T13:13:42;6.90;;;4.93;;
65825;SDS011;52586;-43.152;172.732;2023-05-07T13:16:12;6.53;;;4.15;;
65825;SDS011;52586;-43.152;172.732;2023-05-07T13:18:43;7.47;;;4.65;;
65825;SDS011;52586;-43.152;172.732;2023-05-07T13:21:15;6.40;;;4.72;;
65825;SDS011;52586;-43.152;172.732;2023-05-07T13:23:46;8.18;;;4.47;;
65825;SDS011;52586;-43.152;172.732;2023-05-07T13:26:16;8.23;;;4.63;;
65825;SDS011;52586;-43.152;172.732;2023-05-07T13:28:48;7.85;;;4.63;;
65825;SDS011;52586;-43.152;172.732;2023-05-07T13:31:19;6.75;;;4.70;;
65825;SDS011;52586;-43.152;172.732;2023-05-07T13:33:49;7.03;;;4.45;;
65825;SDS011;52586;-43.152;172.732;2023-05-07T13:36:24;7.68;;;4.63;;
65825;SDS011;52586;-43.152;172.732;2023-05-07T13:38:55;6.18;;;4.22;;
65825;SDS011;52586;-43.152;172.732;2023-05-07T13:41:26;8.13;;;4.20;;
65825;SDS011;52586;-43.152;172.732;2023-05-07T13:43:57;6.35;;;4.13;;
65825;SDS011;52586;-43.152;172.732;2023-05-07T13:46:27;5.60;;;4.07;;
65825;SDS011;52586;-43.152;172.732;2023-05-07T13:48:58;5.93;;;4.50;;
65825;SDS011;52586;-43.152;172.732;2023-05-07T13:51:31;6.32;;;3.83;;
65825;SDS011;52586;-43.152;172.732;2023-05-07T13:54:01;7.05;;;4.38;;
65825;SDS011;52586;-43.152;172.732;2023-05-07T13:56:32;6.72;;;4.05;;
65825;SDS011;52586;-43.152;172.732;2023-05-07T13:59:03;6.68;;;4.05;;
65825;SDS011;52586;-43.152;172.732;2023-05-07T14:01:33;7.00;;;3.85;;
65825;SDS011;52586;-43.152;172.732;2023-05-07T14:04:04;6.40;;;4.05;;
65825;SDS011;52586;-43.152;172.732;2023-05-07T14:06:36;6.28;;;3.80;;
65825;SDS011;52586;-43.152;172.732;2023-05-07T14:09:07;4.90;;;3.90;;
65825;SDS011;52586;-43.152;172.732;2023-05-07T14:11:39;6.78;;;4.10;;
65825;SDS011;52586;-43.152;172.732;2023-05-07T14:14:09;4.80;;;4.03;;
65825;SDS011;52586;-43.152;172.732;2023-05-07T14:16:40;8.18;;;4.07;;
65825;SDS011;52586;-43.152;172.732;2023-05-07T14:19:11;6.65;;;3.83;;
65825;SDS011;52586;-43.152;172.732;2023-05-07T14:21:43;4.43;;;3.42;;
65825;SDS011;52586;-43.152;172.732;2023-05-07T14:24:14;5.50;;;3.50;;
65825;SDS011;52586;-43.152;172.732;2023-05-07T14:26:45;5.88;;;4.07;;
65825;SDS011;52586;-43.152;172.732;2023-05-07T14:29:16;6.28;;;3.63;;
65825;SDS011;52586;-43.152;172.732;2023-05-07T14:31:47;5.80;;;4.00;;
65825;SDS011;52586;-43.152;172.732;2023-05-07T14:34:17;8.25;;;3.88;;
65825;SDS011;52586;-43.152;172.732;2023-05-07T14:36:50;5.65;;;4.00;;
65825;SDS011;52586;-43.152;172.732;2023-05-07T14:39:21;5.22;;;3.47;;
65825;SDS011;52586;-43.152;172.732;2023-05-07T14:41:52;7.28;;;3.65;;
65825;SDS011;52586;-43.152;172.732;2023-05-07T14:44:23;4.70;;;3.50;;
65825;SDS011;52586;-43.152;172.732;2023-05-07T14:46:53;4.97;;;3.60;;
65825;SDS011;52586;-43.152;172.732;2023-05-07T14:49:25;4.38;;;3.78;;
65825;SDS011;52586;-43.152;172.732;2023-05-07T14:51:59;5.80;;;3.38;;
65825;SDS011;52586;-43.152;172.732;2023-05-07T14:54:30;5.13;;;3.70;;
65825;SDS011;52586;-43.152;172.732;2023-05-07T14:57:03;6.13;;;3.70;;
65825;SDS011;52586;-43.152;172.732;2023-05-07T14:59:34;4.53;;;3.38;;
65825;SDS011;52586;-43.152;172.732;2023-05-07T15:02:06;5.85;;;3.67;;
65825;SDS011;52586;-43.152;172.732;2023-05-07T15:04:37;5.10;;;3.30;;
65825;SDS011;52586;-43.152;172.732;2023-05-07T15:07:13;5.22;;;3.67;;
65825;SDS011;52586;-43.152;172.732;2023-05-07T15:09:44;6.30;;;3.30;;
65825;SDS011;52586;-43.152;172.732;2023-05-07T15:12:15;4.80;;;3.47;;
65825;SDS011;52586;-43.152;172.732;2023-05-07T15:14:45;3.60;;;2.97;;
65825;SDS011;52586;-43.152;172.732;2023-05-07T15:17:16;4.60;;;3.33;;
65825;SDS011;52586;-43.152;172.732;2023-05-07T15:19:47;4.88;;;3.30;;
65825;SDS011;52586;-43.152;172.732;2023-05-07T15:22:19;4.88;;;3.20;;
65825;SDS011;52586;-43.152;172.732;2023-05-07T15:24:50;5.13;;;2.95;;
65825;SDS011;52586;-43.152;172.732;2023-05-07T15:27:21;4.25;;;3.33;;
65825;SDS011;52586;-43.152;172.732;2023-05-07T15:29:51;4.78;;;3.05;;
65825;SDS011;52586;-43.152;172.732;2023-05-07T15:32:22;4.30;;;3.20;;
65825;SDS011;52586;-43.152;172.732;2023-05-07T15:34:53;5.05;;;3.20;;
65825;SDS011;52586;-43.152;172.732;2023-05-07T15:37:26;4.53;;;2.85;;
65825;SDS011;52586;-43.152;172.732;2023-05-07T15:39:56;4.00;;;3.00;;
65825;SDS011;52586;-43.152;172.732;2023-05-07T15:42:28;3.03;;;2.35;;
65825;SDS011;52586;-43.152;172.732;2023-05-07T15:44:59;5.22;;;3.05;;
65825;SDS011;52586;-43.152;172.732;2023-05-07T15:47:29;4.35;;;2.92;;
65825;SDS011;52586;-43.152;172.732;2023-05-07T15:50:02;4.07;;;2.97;;
65825;SDS011;52586;-43.152;172.732;2023-05-07T15:52:38;4.40;;;2.83;;
65825;SDS011;52586;-43.152;172.732;2023-05-07T15:55:09;3.80;;;2.67;;